sensor_id;sensor_type;location;lat;lon;timestamp;P1;durP1;ratioP1;P2;durP2;ratioP2
64598;SDS011;51008;51.504;11.548;2023-02-28T00:02:04;5.25;;;2.50;;
64598;SDS011;51008;51.504;11.548;2023-02-28T00:07:05;4.35;;;2.30;;
64598;SDS011;51008;51.504;11.548;2023-02-28T00:12:06;6.80;;;2.40;;
64598;SDS011;51008;51.504;11.548;2023-02-28T00:17:07;5.07;;;2.50;;
64598;SDS011;51008;51.504;11.548;2023-02-28T00:22:08;5.82;;;2.30;;
64598;SDS011;51008;51.504;11.548;2023-02-28T00:27:09;7.40;;;2.20;;
64598;SDS011;51008;51.504;11.548;2023-02-28T00:32:10;4.15;;;2.30;;
64598;SDS011;51008;51.504;11.548;2023-02-28T00:37:12;4.40;;;2.25;;
64598;SDS011;51008;51.504;11.548;2023-02-28T00:42:13;4.40;;;2.13;;
64598;SDS011;51008;51.504;11.548;2023-02-28T00:47:14;4.88;;;2.30;;
64598;SDS011;51008;51.504;11.548;2023-02-28T00:52:15;8.50;;;2.45;;
64598;SDS011;51008;51.504;11.548;2023-02-28T00:57:16;4.35;;;1.90;;
64598;SDS011;51008;51.504;11.548;2023-02-28T01:02:17;6.00;;;2.17;;
64598;SDS011;51008;51.504;11.548;2023-02-28T01:07:18;3.85;;;2.13;;
64598;SDS011;51008;51.504;11.548;2023-02-28T01:12:20;3.58;;;2.17;;
64598;SDS011;51008;51.504;11.548;2023-02-28T01:17:21;6.25;;;2.33;;
64598;SDS011;51008;51.504;11.548;2023-02-28T01:22:22;5.90;;;2.70;;
64598;SDS011;51008;51.504;11.548;2023-02-28T01:27:23;5.38;;;2.72;;
64598;SDS011;51008;51.504;11.548;2023-02-28T01:32:24;7.40;;;2.90;;
64598;SDS011;51008;51.504;11.548;2023-02-28T01:37:25;6.97;;;2.72;;
64598;SDS011;51008;51.504;11.548;2023-02-28T01:42:27;5.90;;;3.08;;
64598;SDS011;51008;51.504;11.548;2023-02-28T01:47:33;8.82;;;2.65;;
64598;SDS011;51008;51.504;11.548;2023-02-28T01:52:36;5.28;;;2.45;;
64598;SDS011;51008;51.504;11.548;2023-02-28T01:57:38;5.88;;;2.80;;
64598;SDS011;51008;51.504;11.548;2023-02-28T02:02:45;7.78;;;3.03;;
64598;SDS011;51008;51.504;11.548;2023-02-28T02:07:50;6.22;;;2.97;;
64598;SDS011;51008;51.504;11.548;2023-02-28T02:13:13;8.57;;;2.70;;
64598;SDS011;51008;51.504;11.548;2023-02-28T02:18:37;9.00;;;2.97;;
64598;SDS011;51008;51.504;11.548;2023-02-28T02:35:04;5.55;;;2.70;;
64598;SDS011;51008;51.504;11.548;2023-02-28T02:51:37;6.53;;;2.72;;
64598;SDS011;51008;51.504;11.548;2023-02-28T02:56:39;6.43;;;2.55;;
64598;SDS011;51008;51.504;11.548;2023-02-28T03:01:43;9.43;;;2.78;;
64598;SDS011;51008;51.504;11.548;2023-02-28T03:06:45;6.32;;;2.95;;
64598;SDS011;51008;51.504;11.548;2023-02-28T03:11:46;7.47;;;3.17;;
64598;SDS011;51008;51.504;11.548;2023-02-28T03:17:00;6.90;;;3.17;;
64598;SDS011;51008;51.504;11.548;2023-02-28T03:22:13;7.70;;;2.60;;
64598;SDS011;51008;51.504;11.548;2023-02-28T03:32:42;5.28;;;2.80;;
64598;SDS011;51008;51.504;11.548;2023-02-28T03:37:48;6.40;;;3.00;;
64598;SDS011;51008;51.504;11.548;2023-02-28T03:42:54;4.80;;;2.78;;
64598;SDS011;51008;51.504;11.548;2023-02-28T03:48:01;5.75;;;3.25;;
64598;SDS011;51008;51.504;11.548;2023-02-28T03:58:17;8.45;;;3.13;;
64598;SDS011;51008;51.504;11.548;2023-02-28T04:03:28;8.30;;;3.22;;
64598;SDS011;51008;51.504;11.548;2023-02-28T04:08:29;7.60;;;3.35;;
64598;SDS011;51008;51.504;11.548;2023-02-28T04:13:30;5.63;;;2.78;;
64598;SDS011;51008;51.504;11.548;2023-02-28T04:18:31;5.85;;;2.92;;
64598;SDS011;51008;51.504;11.548;2023-02-28T04:23:32;8.73;;;3.00;;
64598;SDS011;51008;51.504;11.548;2023-02-28T04:28:33;8.95;;;3.40;;
64598;SDS011;51008;51.504;11.548;2023-02-28T04:33:34;5.55;;;3.05;;
64598;SDS011;51008;51.504;11.548;2023-02-28T04:38:36;9.07;;;3.40;;
64598;SDS011;51008;51.504;11.548;2023-02-28T04:43:38;6.05;;;3.10;;
64598;SDS011;51008;51.504;11.548;2023-02-28T04:48:39;4.95;;;2.85;;
64598;SDS011;51008;51.504;11.548;2023-02-28T04:53:41;7.60;;;3.30;;
64598;SDS011;51008;51.504;11.548;2023-02-28T04:58:42;6.47;;;3.72;;
64598;SDS011;51008;51.504;11.548;2023-02-28T05:03:44;8.68;;;3.58;;
64598;SDS011;51008;51.504;11.548;2023-02-28T05:08:45;5.97;;;2.92;;
64598;SDS011;51008;51.504;11.548;2023-02-28T05:13:46;6.57;;;3.35;;
64598;SDS011;51008;51.504;11.548;2023-02-28T05:18:48;7.82;;;3.75;;
64598;SDS011;51008;51.504;11.548;2023-02-28T05:23:49;10.30;;;3.58;;
64598;SDS011;51008;51.504;11.548;2023-02-28T05:28:50;8.77;;;4.13;;
64598;SDS011;51008;51.504;11.548;2023-02-28T05:33:51;10.88;;;4.40;;
64598;SDS011;51008;51.504;11.548;2023-02-28T05:38:53;15.23;;;4.43;;
64598;SDS011;51008;51.504;11.548;2023-02-28T05:43:54;8.43;;;4.00;;
64598;SDS011;51008;51.504;11.548;2023-02-28T05:48:55;11.68;;;4.07;;
64598;SDS011;51008;51.504;11.548;2023-02-28T05:53:59;8.77;;;3.92;;
64598;SDS011;51008;51.504;11.548;2023-02-28T06:04:02;10.10;;;3.75;;
64598;SDS011;51008;51.504;11.548;2023-02-28T06:09:05;7.83;;;3.30;;
64598;SDS011;51008;51.504;11.548;2023-02-28T06:14:06;12.48;;;4.05;;
64598;SDS011;51008;51.504;11.548;2023-02-28T06:19:08;10.10;;;3.93;;
64598;SDS011;51008;51.504;11.548;2023-02-28T06:24:10;7.73;;;3.70;;
64598;SDS011;51008;51.504;11.548;2023-02-28T06:29:11;9.40;;;3.37;;
64598;SDS011;51008;51.504;11.548;2023-02-28T06:34:13;9.23;;;3.40;;
64598;SDS011;51008;51.504;11.548;2023-02-28T06:39:14;8.60;;;3.57;;
64598;SDS011;51008;51.504;11.548;2023-02-28T06:44:16;10.63;;;4.10;;
64598;SDS011;51008;51.504;11.548;2023-02-28T06:49:17;8.27;;;3.83;;
64598;SDS011;51008;51.504;11.548;2023-02-28T06:54:18;12.65;;;4.00;;
64598;SDS011;51008;51.504;11.548;2023-02-28T06:59:20;6.38;;;3.78;;
64598;SDS011;51008;51.504;11.548;2023-02-28T07:04:21;11.48;;;4.97;;
64598;SDS011;51008;51.504;11.548;2023-02-28T07:09:22;10.80;;;4.57;;
64598;SDS011;51008;51.504;11.548;2023-02-28T07:14:23;9.07;;;4.13;;
64598;SDS011;51008;51.504;11.548;2023-02-28T07:19:27;13.65;;;4.45;;
64598;SDS011;51008;51.504;11.548;2023-02-28T07:24:28;10.68;;;4.43;;
64598;SDS011;51008;51.504;11.548;2023-02-28T07:29:29;10.18;;;4.05;;
64598;SDS011;51008;51.504;11.548;2023-02-28T07:34:31;8.52;;;4.05;;
64598;SDS011;51008;51.504;11.548;2023-02-28T07:39:31;10.90;;;4.70;;
64598;SDS011;51008;51.504;11.548;2023-02-28T07:44:32;12.27;;;4.45;;
64598;SDS011;51008;51.504;11.548;2023-02-28T07:49:34;9.35;;;4.53;;
64598;SDS011;51008;51.504;11.548;2023-02-28T07:54:36;7.60;;;3.67;;
64598;SDS011;51008;51.504;11.548;2023-02-28T07:59:37;9.02;;;4.10;;
64598;SDS011;51008;51.504;11.548;2023-02-28T08:04:38;9.10;;;3.90;;
64598;SDS011;51008;51.504;11.548;2023-02-28T08:09:39;6.88;;;3.50;;
64598;SDS011;51008;51.504;11.548;2023-02-28T08:14:41;9.82;;;3.65;;
64598;SDS011;51008;51.504;11.548;2023-02-28T08:19:42;7.35;;;3.83;;
64598;SDS011;51008;51.504;11.548;2023-02-28T08:24:46;8.43;;;4.07;;
64598;SDS011;51008;51.504;11.548;2023-02-28T08:29:47;13.02;;;4.63;;
64598;SDS011;51008;51.504;11.548;2023-02-28T08:34:47;9.32;;;3.90;;
64598;SDS011;51008;51.504;11.548;2023-02-28T08:39:48;10.73;;;3.90;;
64598;SDS011;51008;51.504;11.548;2023-02-28T08:44:49;8.25;;;3.38;;
64598;SDS011;51008;51.504;11.548;2023-02-28T08:49:50;9.88;;;3.97;;
64598;SDS011;51008;51.504;11.548;2023-02-28T08:54:51;7.90;;;4.15;;
64598;SDS011;51008;51.504;11.548;2023-02-28T08:59:52;9.40;;;4.30;;
64598;SDS011;51008;51.504;11.548;2023-02-28T09:04:53;10.50;;;4.05;;
64598;SDS011;51008;51.504;11.548;2023-02-28T09:09:54;7.78;;;3.70;;
64598;SDS011;51008;51.504;11.548;2023-02-28T09:14:55;8.23;;;4.05;;
64598;SDS011;51008;51.504;11.548;2023-02-28T09:19:56;8.85;;;4.32;;
64598;SDS011;51008;51.504;11.548;2023-02-28T09:24:58;10.05;;;4.40;;
64598;SDS011;51008;51.504;11.548;2023-02-28T09:29:58;8.82;;;4.22;;
64598;SDS011;51008;51.504;11.548;2023-02-28T09:34:59;9.73;;;4.13;;
64598;SDS011;51008;51.504;11.548;2023-02-28T09:40:00;13.38;;;4.68;;
64598;SDS011;51008;51.504;11.548;2023-02-28T09:45:02;10.73;;;4.75;;
64598;SDS011;51008;51.504;11.548;2023-02-28T09:50:20;8.60;;;4.63;;
64598;SDS011;51008;51.504;11.548;2023-02-28T10:00:38;8.50;;;4.35;;
64598;SDS011;51008;51.504;11.548;2023-02-28T10:05:41;6.80;;;3.73;;
64598;SDS011;51008;51.504;11.548;2023-02-28T10:10:53;11.63;;;4.53;;
64598;SDS011;51008;51.504;11.548;2023-02-28T10:21:33;9.85;;;4.40;;
64598;SDS011;51008;51.504;11.548;2023-02-28T10:27:06;9.40;;;4.57;;
64598;SDS011;51008;51.504;11.548;2023-02-28T10:32:18;9.82;;;4.68;;
64598;SDS011;51008;51.504;11.548;2023-02-28T10:37:21;7.68;;;4.65;;
64598;SDS011;51008;51.504;11.548;2023-02-28T10:42:27;10.73;;;5.65;;
64598;SDS011;51008;51.504;11.548;2023-02-28T10:47:29;9.52;;;4.65;;
64598;SDS011;51008;51.504;11.548;2023-02-28T10:52:40;10.30;;;5.60;;
64598;SDS011;51008;51.504;11.548;2023-02-28T10:57:41;10.77;;;5.07;;
64598;SDS011;51008;51.504;11.548;2023-02-28T11:02:42;8.15;;;4.57;;
64598;SDS011;51008;51.504;11.548;2023-02-28T11:07:43;9.75;;;4.63;;
64598;SDS011;51008;51.504;11.548;2023-02-28T11:12:55;9.13;;;4.57;;
64598;SDS011;51008;51.504;11.548;2023-02-28T11:23:03;9.90;;;3.75;;
64598;SDS011;51008;51.504;11.548;2023-02-28T11:28:06;10.40;;;4.45;;
64598;SDS011;51008;51.504;11.548;2023-02-28T11:33:29;8.40;;;4.15;;
64598;SDS011;51008;51.504;11.548;2023-02-28T11:38:32;8.18;;;4.05;;
64598;SDS011;51008;51.504;11.548;2023-02-28T11:43:50;9.52;;;5.00;;
64598;SDS011;51008;51.504;11.548;2023-02-28T11:54:44;10.90;;;5.05;;
64598;SDS011;51008;51.504;11.548;2023-02-28T12:31:33;8.00;;;5.00;;
64598;SDS011;51008;51.504;11.548;2023-02-28T12:36:39;8.13;;;5.22;;
64598;SDS011;51008;51.504;11.548;2023-02-28T12:41:51;10.15;;;4.95;;
64598;SDS011;51008;51.504;11.548;2023-02-28T12:46:58;11.68;;;6.00;;
64598;SDS011;51008;51.504;11.548;2023-02-28T12:52:03;10.13;;;5.30;;
64598;SDS011;51008;51.504;11.548;2023-02-28T12:57:13;9.13;;;5.53;;
64598;SDS011;51008;51.504;11.548;2023-02-28T13:13:13;8.65;;;5.47;;
64598;SDS011;51008;51.504;11.548;2023-02-28T13:18:26;13.50;;;5.78;;
64598;SDS011;51008;51.504;11.548;2023-02-28T13:28:58;9.32;;;6.13;;
64598;SDS011;51008;51.504;11.548;2023-02-28T13:34:21;10.68;;;6.07;;
64598;SDS011;51008;51.504;11.548;2023-02-28T13:40:06;10.80;;;6.00;;
64598;SDS011;51008;51.504;11.548;2023-02-28T14:06:08;14.52;;;6.90;;
64598;SDS011;51008;51.504;11.548;2023-02-28T14:11:22;12.73;;;6.60;;
64598;SDS011;51008;51.504;11.548;2023-02-28T14:16:40;14.63;;;6.75;;
64598;SDS011;51008;51.504;11.548;2023-02-28T14:33:14;13.27;;;6.35;;
64598;SDS011;51008;51.504;11.548;2023-02-28T14:49:31;13.32;;;6.40;;
64598;SDS011;51008;51.504;11.548;2023-02-28T14:54:36;12.77;;;6.95;;
64598;SDS011;51008;51.504;11.548;2023-02-28T14:59:38;17.05;;;6.90;;
64598;SDS011;51008;51.504;11.548;2023-02-28T15:04:39;15.70;;;7.00;;
64598;SDS011;51008;51.504;11.548;2023-02-28T15:09:40;14.48;;;6.70;;
64598;SDS011;51008;51.504;11.548;2023-02-28T15:14:42;16.35;;;6.68;;
64598;SDS011;51008;51.504;11.548;2023-02-28T15:19:44;12.82;;;7.07;;
64598;SDS011;51008;51.504;11.548;2023-02-28T15:24:51;12.35;;;6.53;;
64598;SDS011;51008;51.504;11.548;2023-02-28T15:29:55;11.55;;;6.95;;
64598;SDS011;51008;51.504;11.548;2023-02-28T15:34:58;13.95;;;6.90;;
64598;SDS011;51008;51.504;11.548;2023-02-28T15:45:33;12.50;;;6.97;;
64598;SDS011;51008;51.504;11.548;2023-02-28T15:50:38;17.73;;;7.85;;
64598;SDS011;51008;51.504;11.548;2023-02-28T15:55:39;12.43;;;6.93;;
64598;SDS011;51008;51.504;11.548;2023-02-28T16:00:40;15.13;;;7.85;;
64598;SDS011;51008;51.504;11.548;2023-02-28T16:05:46;12.25;;;7.13;;
64598;SDS011;51008;51.504;11.548;2023-02-28T16:10:48;13.07;;;6.88;;
64598;SDS011;51008;51.504;11.548;2023-02-28T16:15:49;16.52;;;7.32;;
64598;SDS011;51008;51.504;11.548;2023-02-28T16:20:50;12.38;;;6.47;;
64598;SDS011;51008;51.504;11.548;2023-02-28T16:25:50;12.95;;;6.57;;
64598;SDS011;51008;51.504;11.548;2023-02-28T16:30:51;14.98;;;6.25;;
64598;SDS011;51008;51.504;11.548;2023-02-28T16:35:53;9.73;;;5.72;;
64598;SDS011;51008;51.504;11.548;2023-02-28T16:40:55;12.88;;;6.18;;
64598;SDS011;51008;51.504;11.548;2023-02-28T16:45:59;12.02;;;6.53;;
64598;SDS011;51008;51.504;11.548;2023-02-28T16:51:02;10.68;;;6.00;;
64598;SDS011;51008;51.504;11.548;2023-02-28T16:56:03;11.25;;;6.15;;
64598;SDS011;51008;51.504;11.548;2023-02-28T17:01:04;15.73;;;7.18;;
64598;SDS011;51008;51.504;11.548;2023-02-28T17:06:05;13.73;;;6.80;;
64598;SDS011;51008;51.504;11.548;2023-02-28T17:11:09;14.53;;;7.30;;
64598;SDS011;51008;51.504;11.548;2023-02-28T17:16:13;15.95;;;7.32;;
64598;SDS011;51008;51.504;11.548;2023-02-28T17:21:23;13.68;;;7.25;;
64598;SDS011;51008;51.504;11.548;2023-02-28T17:26:24;13.55;;;6.70;;
64598;SDS011;51008;51.504;11.548;2023-02-28T17:31:26;14.38;;;7.45;;
64598;SDS011;51008;51.504;11.548;2023-02-28T17:36:27;14.82;;;7.15;;
64598;SDS011;51008;51.504;11.548;2023-02-28T17:41:28;18.10;;;7.93;;
64598;SDS011;51008;51.504;11.548;2023-02-28T17:46:29;12.45;;;6.70;;
64598;SDS011;51008;51.504;11.548;2023-02-28T17:51:30;14.13;;;6.93;;
64598;SDS011;51008;51.504;11.548;2023-02-28T17:56:31;17.88;;;7.55;;
64598;SDS011;51008;51.504;11.548;2023-02-28T18:01:32;16.60;;;6.90;;
64598;SDS011;51008;51.504;11.548;2023-02-28T18:06:41;15.27;;;7.57;;
64598;SDS011;51008;51.504;11.548;2023-02-28T18:11:44;13.48;;;6.80;;
64598;SDS011;51008;51.504;11.548;2023-02-28T18:16:45;16.02;;;7.18;;
64598;SDS011;51008;51.504;11.548;2023-02-28T18:21:48;15.35;;;6.80;;
64598;SDS011;51008;51.504;11.548;2023-02-28T18:26:51;18.30;;;8.18;;
64598;SDS011;51008;51.504;11.548;2023-02-28T18:31:54;15.20;;;7.25;;
64598;SDS011;51008;51.504;11.548;2023-02-28T18:36:56;11.90;;;6.22;;
64598;SDS011;51008;51.504;11.548;2023-02-28T18:41:57;13.18;;;7.10;;
64598;SDS011;51008;51.504;11.548;2023-02-28T18:47:01;14.98;;;6.25;;
64598;SDS011;51008;51.504;11.548;2023-02-28T18:52:02;20.73;;;7.93;;
64598;SDS011;51008;51.504;11.548;2023-02-28T18:57:08;15.68;;;7.78;;
64598;SDS011;51008;51.504;11.548;2023-02-28T19:02:09;11.88;;;6.75;;
64598;SDS011;51008;51.504;11.548;2023-02-28T19:07:10;14.73;;;7.10;;
64598;SDS011;51008;51.504;11.548;2023-02-28T19:12:11;15.82;;;6.55;;
64598;SDS011;51008;51.504;11.548;2023-02-28T19:17:12;15.98;;;6.90;;
64598;SDS011;51008;51.504;11.548;2023-02-28T19:22:13;17.80;;;7.85;;
64598;SDS011;51008;51.504;11.548;2023-02-28T19:27:14;13.57;;;6.80;;
64598;SDS011;51008;51.504;11.548;2023-02-28T19:32:15;18.40;;;8.07;;
64598;SDS011;51008;51.504;11.548;2023-02-28T19:37:17;19.33;;;7.75;;
64598;SDS011;51008;51.504;11.548;2023-02-28T19:42:18;16.20;;;7.40;;
64598;SDS011;51008;51.504;11.548;2023-02-28T19:47:19;18.27;;;7.57;;
64598;SDS011;51008;51.504;11.548;2023-02-28T19:52:21;16.20;;;7.82;;
64598;SDS011;51008;51.504;11.548;2023-02-28T19:57:22;17.30;;;7.40;;
64598;SDS011;51008;51.504;11.548;2023-02-28T20:02:23;21.20;;;8.65;;
64598;SDS011;51008;51.504;11.548;2023-02-28T20:07:25;16.65;;;8.05;;
64598;SDS011;51008;51.504;11.548;2023-02-28T20:12:26;18.98;;;8.45;;
64598;SDS011;51008;51.504;11.548;2023-02-28T20:17:27;16.38;;;8.20;;
64598;SDS011;51008;51.504;11.548;2023-02-28T20:22:29;14.82;;;7.75;;
64598;SDS011;51008;51.504;11.548;2023-02-28T20:27:30;17.73;;;8.65;;
64598;SDS011;51008;51.504;11.548;2023-02-28T20:32:31;18.20;;;8.50;;
64598;SDS011;51008;51.504;11.548;2023-02-28T20:37:33;19.92;;;9.60;;
64598;SDS011;51008;51.504;11.548;2023-02-28T20:42:36;21.90;;;9.48;;
64598;SDS011;51008;51.504;11.548;2023-02-28T20:47:37;19.33;;;9.48;;
64598;SDS011;51008;51.504;11.548;2023-02-28T20:52:38;19.92;;;9.25;;
64598;SDS011;51008;51.504;11.548;2023-02-28T20:57:39;18.42;;;8.23;;
64598;SDS011;51008;51.504;11.548;2023-02-28T21:02:40;17.45;;;9.30;;
64598;SDS011;51008;51.504;11.548;2023-02-28T21:07:41;17.98;;;8.57;;
64598;SDS011;51008;51.504;11.548;2023-02-28T21:12:42;18.75;;;9.05;;
64598;SDS011;51008;51.504;11.548;2023-02-28T21:17:43;19.35;;;10.02;;
64598;SDS011;51008;51.504;11.548;2023-02-28T21:22:44;22.85;;;10.40;;
64598;SDS011;51008;51.504;11.548;2023-02-28T21:27:44;24.42;;;10.10;;
64598;SDS011;51008;51.504;11.548;2023-02-28T21:32:46;21.92;;;10.25;;
64598;SDS011;51008;51.504;11.548;2023-02-28T21:37:47;22.48;;;10.82;;
64598;SDS011;51008;51.504;11.548;2023-02-28T21:42:48;21.55;;;10.88;;
64598;SDS011;51008;51.504;11.548;2023-02-28T21:47:49;22.70;;;9.90;;
64598;SDS011;51008;51.504;11.548;2023-02-28T21:52:50;20.20;;;9.68;;
64598;SDS011;51008;51.504;11.548;2023-02-28T21:57:51;21.20;;;10.18;;
64598;SDS011;51008;51.504;11.548;2023-02-28T22:02:52;20.08;;;9.40;;
64598;SDS011;51008;51.504;11.548;2023-02-28T22:07:53;21.52;;;10.13;;
64598;SDS011;51008;51.504;11.548;2023-02-28T22:12:54;20.40;;;9.70;;
64598;SDS011;51008;51.504;11.548;2023-02-28T22:17:56;18.35;;;9.85;;
64598;SDS011;51008;51.504;11.548;2023-02-28T22:22:58;22.58;;;9.70;;
64598;SDS011;51008;51.504;11.548;2023-02-28T22:27:59;20.67;;;10.57;;
64598;SDS011;51008;51.504;11.548;2023-02-28T22:32:59;21.75;;;10.05;;
64598;SDS011;51008;51.504;11.548;2023-02-28T22:38:00;21.65;;;9.55;;
64598;SDS011;51008;51.504;11.548;2023-02-28T22:43:01;22.83;;;10.13;;
64598;SDS011;51008;51.504;11.548;2023-02-28T22:48:03;25.15;;;9.95;;
64598;SDS011;51008;51.504;11.548;2023-02-28T22:53:05;20.63;;;10.50;;
64598;SDS011;51008;51.504;11.548;2023-02-28T22:58:06;23.38;;;10.60;;
64598;SDS011;51008;51.504;11.548;2023-02-28T23:03:07;19.33;;;9.65;;
64598;SDS011;51008;51.504;11.548;2023-02-28T23:08:08;20.13;;;10.13;;
64598;SDS011;51008;51.504;11.548;2023-02-28T23:13:09;20.20;;;9.67;;
64598;SDS011;51008;51.504;11.548;2023-02-28T23:18:10;20.27;;;10.07;;
64598;SDS011;51008;51.504;11.548;2023-02-28T23:23:12;22.63;;;9.75;;
64598;SDS011;51008;51.504;11.548;2023-02-28T23:28:13;21.35;;;10.18;;
64598;SDS011;51008;51.504;11.548;2023-02-28T23:33:14;19.13;;;10.10;;
64598;SDS011;51008;51.504;11.548;2023-02-28T23:38:15;19.13;;;10.27;;
64598;SDS011;51008;51.504;11.548;2023-02-28T23:43:16;21.67;;;9.93;;
64598;SDS011;51008;51.504;11.548;2023-02-28T23:48:17;20.50;;;9.97;;
64598;SDS011;51008;51.504;11.548;2023-02-28T23:53:18;23.20;;;10.33;;
64598;SDS011;51008;51.504;11.548;2023-02-28T23:58:18;20.25;;;10.02;;
